sensor_id;sensor_type;location;lat;lon;timestamp;temperature;humidity
54461;DHT22;69977;49.414;11.010;2023-05-29T00:00:57;12.50;99.90
54461;DHT22;69977;49.414;11.010;2023-05-29T00:03:22;12.10;99.90
54461;DHT22;69977;49.414;11.010;2023-05-29T00:05:48;12.10;99.90
54461;DHT22;69977;49.414;11.010;2023-05-29T00:08:14;12.10;99.90
54461;DHT22;69977;49.414;11.010;2023-05-29T00:10:41;12.20;99.90
54461;DHT22;69977;49.414;11.010;2023-05-29T00:13:07;12.10;99.90
54461;DHT22;69977;49.414;11.010;2023-05-29T00:15:32;12.10;99.90
54461;DHT22;69977;49.414;11.010;2023-05-29T00:17:58;12.10;99.90
54461;DHT22;69977;49.414;11.010;2023-05-29T00:20:24;12.10;99.90
54461;DHT22;69977;49.414;11.010;2023-05-29T00:22:50;12.20;99.90
54461;DHT22;69977;49.414;11.010;2023-05-29T00:25:16;12.30;99.90
54461;DHT22;69977;49.414;11.010;2023-05-29T00:27:42;12.00;99.90
54461;DHT22;69977;49.414;11.010;2023-05-29T00:30:08;12.00;99.90
54461;DHT22;69977;49.414;11.010;2023-05-29T00:32:34;12.00;99.90
54461;DHT22;69977;49.414;11.010;2023-05-29T00:35:00;12.00;99.90
54461;DHT22;69977;49.414;11.010;2023-05-29T00:37:26;11.80;99.90
54461;DHT22;69977;49.414;11.010;2023-05-29T00:39:51;11.80;99.90
54461;DHT22;69977;49.414;11.010;2023-05-29T00:42:17;11.70;99.90
54461;DHT22;69977;49.414;11.010;2023-05-29T00:44:43;11.80;99.90
54461;DHT22;69977;49.414;11.010;2023-05-29T00:47:09;11.70;99.90
54461;DHT22;69977;49.414;11.010;2023-05-29T00:49:36;11.80;99.90
54461;DHT22;69977;49.414;11.010;2023-05-29T00:52:03;11.70;99.90
54461;DHT22;69977;49.414;11.010;2023-05-29T00:54:32;11.60;99.90
54461;DHT22;69977;49.414;11.010;2023-05-29T00:56:58;11.60;99.90
54461;DHT22;69977;49.414;11.010;2023-05-29T00:59:30;11.60;99.90
54461;DHT22;69977;49.414;11.010;2023-05-29T01:01:56;11.50;99.90
54461;DHT22;69977;49.414;11.010;2023-05-29T01:04:23;11.50;99.90
54461;DHT22;69977;49.414;11.010;2023-05-29T01:06:51;11.40;99.90
54461;DHT22;69977;49.414;11.010;2023-05-29T01:09:17;11.40;99.90
54461;DHT22;69977;49.414;11.010;2023-05-29T01:25:50;11.20;99.90
54461;DHT22;69977;49.414;11.010;2023-05-29T01:28:20;11.30;99.90
54461;DHT22;69977;49.414;11.010;2023-05-29T01:30:48;11.10;99.90
54461;DHT22;69977;49.414;11.010;2023-05-29T01:33:15;11.10;99.90
54461;DHT22;69977;49.414;11.010;2023-05-29T01:35:41;11.20;99.90
54461;DHT22;69977;49.414;11.010;2023-05-29T01:38:07;11.10;99.90
54461;DHT22;69977;49.414;11.010;2023-05-29T01:40:33;11.10;99.90
54461;DHT22;69977;49.414;11.010;2023-05-29T01:42:59;11.20;99.90
54461;DHT22;69977;49.414;11.010;2023-05-29T01:45:26;11.10;99.90
54461;DHT22;69977;49.414;11.010;2023-05-29T01:47:52;11.00;99.90
54461;DHT22;69977;49.414;11.010;2023-05-29T01:50:18;10.80;99.90
54461;DHT22;69977;49.414;11.010;2023-05-29T01:52:44;10.80;99.90
54461;DHT22;69977;49.414;11.010;2023-05-29T01:55:11;10.90;99.90
54461;DHT22;69977;49.414;11.010;2023-05-29T01:57:37;10.80;99.90
54461;DHT22;69977;49.414;11.010;2023-05-29T02:00:04;10.80;99.90
54461;DHT22;69977;49.414;11.010;2023-05-29T02:02:40;10.70;99.90
54461;DHT22;69977;49.414;11.010;2023-05-29T02:05:07;10.70;99.90
54461;DHT22;69977;49.414;11.010;2023-05-29T02:07:34;10.70;99.90
54461;DHT22;69977;49.414;11.010;2023-05-29T02:10:03;10.70;99.90
54461;DHT22;69977;49.414;11.010;2023-05-29T02:12:29;10.60;99.90
54461;DHT22;69977;49.414;11.010;2023-05-29T02:14:55;10.80;99.90
54461;DHT22;69977;49.414;11.010;2023-05-29T02:17:22;10.60;99.90
54461;DHT22;69977;49.414;11.010;2023-05-29T02:19:48;10.40;99.90
54461;DHT22;69977;49.414;11.010;2023-05-29T02:22:14;10.40;99.90
54461;DHT22;69977;49.414;11.010;2023-05-29T02:24:40;10.40;99.90
54461;DHT22;69977;49.414;11.010;2023-05-29T02:27:06;10.40;99.90
54461;DHT22;69977;49.414;11.010;2023-05-29T02:29:33;10.40;99.90
54461;DHT22;69977;49.414;11.010;2023-05-29T02:31:59;10.50;99.90
54461;DHT22;69977;49.414;11.010;2023-05-29T02:34:25;10.30;99.90
54461;DHT22;69977;49.414;11.010;2023-05-29T02:36:51;10.30;99.90
54461;DHT22;69977;49.414;11.010;2023-05-29T02:39:18;10.30;99.90
54461;DHT22;69977;49.414;11.010;2023-05-29T02:41:44;10.30;99.90
54461;DHT22;69977;49.414;11.010;2023-05-29T02:44:10;10.20;99.90
54461;DHT22;69977;49.414;11.010;2023-05-29T02:46:36;10.10;99.90
54461;DHT22;69977;49.414;11.010;2023-05-29T02:49:02;10.10;99.90
54461;DHT22;69977;49.414;11.010;2023-05-29T02:51:28;10.00;99.90
54461;DHT22;69977;49.414;11.010;2023-05-29T02:53:54;10.10;99.90
54461;DHT22;69977;49.414;11.010;2023-05-29T02:56:19;10.10;99.90
54461;DHT22;69977;49.414;11.010;2023-05-29T02:58:50;10.10;99.90
54461;DHT22;69977;49.414;11.010;2023-05-29T03:01:16;10.00;99.90
54461;DHT22;69977;49.414;11.010;2023-05-29T03:03:42;10.00;99.90
54461;DHT22;69977;49.414;11.010;2023-05-29T03:06:08;10.00;99.90
54461;DHT22;69977;49.414;11.010;2023-05-29T03:08:36;9.90;99.90
54461;DHT22;69977;49.414;11.010;2023-05-29T03:11:09;9.90;99.90
54461;DHT22;69977;49.414;11.010;2023-05-29T03:13:37;9.90;99.90
54461;DHT22;69977;49.414;11.010;2023-05-29T03:16:05;9.90;99.90
54461;DHT22;69977;49.414;11.010;2023-05-29T03:18:34;9.90;99.90
54461;DHT22;69977;49.414;11.010;2023-05-29T03:21:01;9.80;99.90
54461;DHT22;69977;49.414;11.010;2023-05-29T03:23:27;9.80;99.90
54461;DHT22;69977;49.414;11.010;2023-05-29T03:25:53;9.70;99.90
54461;DHT22;69977;49.414;11.010;2023-05-29T03:28:20;9.80;99.90
54461;DHT22;69977;49.414;11.010;2023-05-29T03:30:46;9.80;99.90
54461;DHT22;69977;49.414;11.010;2023-05-29T03:33:15;9.80;99.90
54461;DHT22;69977;49.414;11.010;2023-05-29T03:36:03;9.80;99.90
54461;DHT22;69977;49.414;11.010;2023-05-29T03:38:29;9.80;99.90
54461;DHT22;69977;49.414;11.010;2023-05-29T03:40:58;9.80;99.90
54461;DHT22;69977;49.414;11.010;2023-05-29T03:43:23;9.60;99.90
54461;DHT22;69977;49.414;11.010;2023-05-29T03:45:49;9.60;99.90
54461;DHT22;69977;49.414;11.010;2023-05-29T03:48:15;9.90;99.90
54461;DHT22;69977;49.414;11.010;2023-05-29T03:50:44;9.80;99.90
54461;DHT22;69977;49.414;11.010;2023-05-29T03:53:10;9.80;99.90
54461;DHT22;69977;49.414;11.010;2023-05-29T03:55:36;9.80;99.90
54461;DHT22;69977;49.414;11.010;2023-05-29T03:58:02;9.90;99.90
54461;DHT22;69977;49.414;11.010;2023-05-29T04:00:28;9.90;99.90
54461;DHT22;69977;49.414;11.010;2023-05-29T04:02:57;10.00;99.90
54461;DHT22;69977;49.414;11.010;2023-05-29T04:05:23;9.90;99.90
54461;DHT22;69977;49.414;11.010;2023-05-29T04:07:49;10.00;99.90
54461;DHT22;69977;49.414;11.010;2023-05-29T04:10:15;10.00;99.90
54461;DHT22;69977;49.414;11.010;2023-05-29T04:12:41;9.90;99.90
54461;DHT22;69977;49.414;11.010;2023-05-29T04:15:08;10.00;99.90
54461;DHT22;69977;49.414;11.010;2023-05-29T04:17:34;10.00;99.90
54461;DHT22;69977;49.414;11.010;2023-05-29T04:20:00;10.00;99.90
54461;DHT22;69977;49.414;11.010;2023-05-29T04:22:31;10.10;99.90
54461;DHT22;69977;49.414;11.010;2023-05-29T04:24:57;10.20;99.90
54461;DHT22;69977;49.414;11.010;2023-05-29T04:27:23;10.20;99.90
54461;DHT22;69977;49.414;11.010;2023-05-29T04:29:49;10.30;99.90
54461;DHT22;69977;49.414;11.010;2023-05-29T04:32:15;10.30;99.90
54461;DHT22;69977;49.414;11.010;2023-05-29T04:34:41;10.40;99.90
54461;DHT22;69977;49.414;11.010;2023-05-29T04:37:10;10.50;99.90
54461;DHT22;69977;49.414;11.010;2023-05-29T04:39:38;10.50;99.90
54461;DHT22;69977;49.414;11.010;2023-05-29T04:42:04;10.50;99.90
54461;DHT22;69977;49.414;11.010;2023-05-29T04:44:31;10.60;99.90
54461;DHT22;69977;49.414;11.010;2023-05-29T04:46:57;10.60;99.90
54461;DHT22;69977;49.414;11.010;2023-05-29T04:49:23;10.70;99.90
54461;DHT22;69977;49.414;11.010;2023-05-29T04:51:49;10.70;99.90
54461;DHT22;69977;49.414;11.010;2023-05-29T04:54:18;10.90;99.90
54461;DHT22;69977;49.414;11.010;2023-05-29T04:56:46;10.90;99.90
54461;DHT22;69977;49.414;11.010;2023-05-29T04:59:13;11.10;99.90
54461;DHT22;69977;49.414;11.010;2023-05-29T05:01:39;11.10;99.90
54461;DHT22;69977;49.414;11.010;2023-05-29T05:04:09;11.20;99.90
54461;DHT22;69977;49.414;11.010;2023-05-29T05:06:36;11.30;99.90
54461;DHT22;69977;49.414;11.010;2023-05-29T05:09:03;11.40;99.90
54461;DHT22;69977;49.414;11.010;2023-05-29T05:11:29;11.50;99.90
54461;DHT22;69977;49.414;11.010;2023-05-29T05:13:55;11.60;99.90
54461;DHT22;69977;49.414;11.010;2023-05-29T05:16:21;11.70;99.90
54461;DHT22;69977;49.414;11.010;2023-05-29T05:18:47;11.80;99.90
54461;DHT22;69977;49.414;11.010;2023-05-29T05:21:13;12.00;99.90
54461;DHT22;69977;49.414;11.010;2023-05-29T05:23:39;12.10;99.90
54461;DHT22;69977;49.414;11.010;2023-05-29T05:26:08;12.20;99.90
54461;DHT22;69977;49.414;11.010;2023-05-29T05:28:35;12.20;99.90
54461;DHT22;69977;49.414;11.010;2023-05-29T05:31:01;12.40;99.90
54461;DHT22;69977;49.414;11.010;2023-05-29T05:33:28;12.60;99.90
54461;DHT22;69977;49.414;11.010;2023-05-29T05:35:54;12.80;99.90
54461;DHT22;69977;49.414;11.010;2023-05-29T05:38:20;12.90;99.90
54461;DHT22;69977;49.414;11.010;2023-05-29T05:40:46;13.00;99.90
54461;DHT22;69977;49.414;11.010;2023-05-29T05:43:19;13.20;99.90
54461;DHT22;69977;49.414;11.010;2023-05-29T05:46:02;13.30;99.90
54461;DHT22;69977;49.414;11.010;2023-05-29T05:48:28;13.40;99.90
54461;DHT22;69977;49.414;11.010;2023-05-29T05:50:55;13.60;99.90
54461;DHT22;69977;49.414;11.010;2023-05-29T05:53:21;13.70;99.90
54461;DHT22;69977;49.414;11.010;2023-05-29T05:55:47;13.80;99.90
54461;DHT22;69977;49.414;11.010;2023-05-29T05:58:13;13.80;99.90
54461;DHT22;69977;49.414;11.010;2023-05-29T06:00:40;13.90;99.90
54461;DHT22;69977;49.414;11.010;2023-05-29T06:03:06;14.10;99.90
54461;DHT22;69977;49.414;11.010;2023-05-29T06:05:50;14.20;99.90
54461;DHT22;69977;49.414;11.010;2023-05-29T06:08:17;14.20;99.90
54461;DHT22;69977;49.414;11.010;2023-05-29T06:10:43;14.30;99.90
54461;DHT22;69977;49.414;11.010;2023-05-29T06:13:09;14.40;99.90
54461;DHT22;69977;49.414;11.010;2023-05-29T06:15:44;14.40;99.90
54461;DHT22;69977;49.414;11.010;2023-05-29T06:18:10;14.60;99.90
54461;DHT22;69977;49.414;11.010;2023-05-29T06:20:37;14.70;99.90
54461;DHT22;69977;49.414;11.010;2023-05-29T06:23:03;14.90;99.90
54461;DHT22;69977;49.414;11.010;2023-05-29T06:25:30;15.00;99.90
54461;DHT22;69977;49.414;11.010;2023-05-29T06:28:02;15.10;99.90
54461;DHT22;69977;49.414;11.010;2023-05-29T06:30:28;15.10;99.90
54461;DHT22;69977;49.414;11.010;2023-05-29T06:32:54;15.20;99.90
54461;DHT22;69977;49.414;11.010;2023-05-29T06:35:26;15.30;99.90
54461;DHT22;69977;49.414;11.010;2023-05-29T06:37:52;15.40;99.90
54461;DHT22;69977;49.414;11.010;2023-05-29T06:40:17;15.50;99.90
54461;DHT22;69977;49.414;11.010;2023-05-29T06:42:44;15.50;99.90
54461;DHT22;69977;49.414;11.010;2023-05-29T06:45:14;15.60;99.90
54461;DHT22;69977;49.414;11.010;2023-05-29T06:47:43;15.60;99.90
54461;DHT22;69977;49.414;11.010;2023-05-29T06:50:09;15.70;99.90
54461;DHT22;69977;49.414;11.010;2023-05-29T06:52:36;15.80;99.90
54461;DHT22;69977;49.414;11.010;2023-05-29T06:55:21;15.90;99.90
54461;DHT22;69977;49.414;11.010;2023-05-29T06:57:46;16.00;99.90
54461;DHT22;69977;49.414;11.010;2023-05-29T07:00:13;16.00;99.90
54461;DHT22;69977;49.414;11.010;2023-05-29T07:02:45;16.10;99.90
54461;DHT22;69977;49.414;11.010;2023-05-29T07:05:11;16.30;99.90
54461;DHT22;69977;49.414;11.010;2023-05-29T07:07:37;16.40;99.90
54461;DHT22;69977;49.414;11.010;2023-05-29T07:10:03;16.50;99.90
54461;DHT22;69977;49.414;11.010;2023-05-29T07:12:29;16.70;99.90
54461;DHT22;69977;49.414;11.010;2023-05-29T07:14:55;16.70;99.90
54461;DHT22;69977;49.414;11.010;2023-05-29T07:17:21;16.70;99.90
54461;DHT22;69977;49.414;11.010;2023-05-29T07:19:55;16.70;99.90
54461;DHT22;69977;49.414;11.010;2023-05-29T07:22:21;16.90;99.90
54461;DHT22;69977;49.414;11.010;2023-05-29T07:24:47;16.90;99.90
54461;DHT22;69977;49.414;11.010;2023-05-29T07:27:13;17.00;99.90
54461;DHT22;69977;49.414;11.010;2023-05-29T07:29:39;17.20;99.90
54461;DHT22;69977;49.414;11.010;2023-05-29T07:32:05;17.20;99.90
54461;DHT22;69977;49.414;11.010;2023-05-29T07:34:31;17.30;99.90
54461;DHT22;69977;49.414;11.010;2023-05-29T07:37:04;17.50;99.90
54461;DHT22;69977;49.414;11.010;2023-05-29T07:39:33;17.60;99.90
54461;DHT22;69977;49.414;11.010;2023-05-29T07:42:02;17.70;99.90
54461;DHT22;69977;49.414;11.010;2023-05-29T07:44:28;17.70;99.90
54461;DHT22;69977;49.414;11.010;2023-05-29T07:46:54;17.90;99.90
54461;DHT22;69977;49.414;11.010;2023-05-29T07:49:33;18.00;99.90
54461;DHT22;69977;49.414;11.010;2023-05-29T07:51:59;18.10;99.90
54461;DHT22;69977;49.414;11.010;2023-05-29T07:54:25;18.20;99.90
54461;DHT22;69977;49.414;11.010;2023-05-29T07:56:51;18.20;99.90
54461;DHT22;69977;49.414;11.010;2023-05-29T07:59:17;18.30;99.90
54461;DHT22;69977;49.414;11.010;2023-05-29T08:01:43;18.40;99.90
54461;DHT22;69977;49.414;11.010;2023-05-29T08:04:25;18.40;99.90
54461;DHT22;69977;49.414;11.010;2023-05-29T08:06:51;18.60;99.90
54461;DHT22;69977;49.414;11.010;2023-05-29T08:09:17;18.60;99.90
54461;DHT22;69977;49.414;11.010;2023-05-29T08:11:43;18.70;99.90
54461;DHT22;69977;49.414;11.010;2023-05-29T08:14:12;18.70;99.90
54461;DHT22;69977;49.414;11.010;2023-05-29T08:16:39;18.90;99.90
54461;DHT22;69977;49.414;11.010;2023-05-29T08:19:05;18.90;99.90
54461;DHT22;69977;49.414;11.010;2023-05-29T08:21:30;19.00;99.90
54461;DHT22;69977;49.414;11.010;2023-05-29T08:23:57;19.10;99.90
54461;DHT22;69977;49.414;11.010;2023-05-29T08:26:23;19.20;99.90
54461;DHT22;69977;49.414;11.010;2023-05-29T08:28:49;19.30;99.90
54461;DHT22;69977;49.414;11.010;2023-05-29T08:31:16;19.30;99.90
54461;DHT22;69977;49.414;11.010;2023-05-29T08:33:42;19.30;99.90
54461;DHT22;69977;49.414;11.010;2023-05-29T08:36:07;19.50;99.90
54461;DHT22;69977;49.414;11.010;2023-05-29T08:38:34;19.50;99.90
54461;DHT22;69977;49.414;11.010;2023-05-29T08:41:00;19.60;99.90
54461;DHT22;69977;49.414;11.010;2023-05-29T08:43:31;19.50;99.90
54461;DHT22;69977;49.414;11.010;2023-05-29T08:46:00;19.50;99.00
54461;DHT22;69977;49.414;11.010;2023-05-29T08:48:27;19.60;99.40
54461;DHT22;69977;49.414;11.010;2023-05-29T08:50:56;19.80;99.20
54461;DHT22;69977;49.414;11.010;2023-05-29T08:53:23;19.80;99.00
54461;DHT22;69977;49.414;11.010;2023-05-29T08:55:49;19.80;98.20
54461;DHT22;69977;49.414;11.010;2023-05-29T08:58:20;19.90;97.70
54461;DHT22;69977;49.414;11.010;2023-05-29T09:00:50;19.90;97.90
54461;DHT22;69977;49.414;11.010;2023-05-29T09:03:16;19.90;96.10
54461;DHT22;69977;49.414;11.010;2023-05-29T09:05:44;20.00;96.90
54461;DHT22;69977;49.414;11.010;2023-05-29T09:08:11;20.00;96.00
54461;DHT22;69977;49.414;11.010;2023-05-29T09:10:41;20.10;95.20
54461;DHT22;69977;49.414;11.010;2023-05-29T09:13:09;20.00;94.40
54461;DHT22;69977;49.414;11.010;2023-05-29T09:15:36;20.10;94.60
54461;DHT22;69977;49.414;11.010;2023-05-29T09:18:04;20.30;93.50
54461;DHT22;69977;49.414;11.010;2023-05-29T09:20:30;20.30;94.90
54461;DHT22;69977;49.414;11.010;2023-05-29T09:23:00;20.30;93.70
54461;DHT22;69977;49.414;11.010;2023-05-29T09:25:28;20.20;93.60
54461;DHT22;69977;49.414;11.010;2023-05-29T09:27:58;20.40;92.30
54461;DHT22;69977;49.414;11.010;2023-05-29T09:30:39;20.50;93.10
54461;DHT22;69977;49.414;11.010;2023-05-29T09:33:09;20.60;93.00
54461;DHT22;69977;49.414;11.010;2023-05-29T09:35:39;20.80;93.10
54461;DHT22;69977;49.414;11.010;2023-05-29T09:38:07;20.80;94.30
54461;DHT22;69977;49.414;11.010;2023-05-29T09:40:38;21.00;93.50
54461;DHT22;69977;49.414;11.010;2023-05-29T09:43:15;21.00;93.90
54461;DHT22;69977;49.414;11.010;2023-05-29T09:45:47;21.10;94.00
54461;DHT22;69977;49.414;11.010;2023-05-29T09:48:15;21.40;93.90
54461;DHT22;69977;49.414;11.010;2023-05-29T09:50:41;21.50;94.80
54461;DHT22;69977;49.414;11.010;2023-05-29T09:53:24;21.40;93.10
54461;DHT22;69977;49.414;11.010;2023-05-29T09:55:52;21.40;91.20
54461;DHT22;69977;49.414;11.010;2023-05-29T09:58:18;21.70;90.90
54461;DHT22;69977;49.414;11.010;2023-05-29T10:00:45;21.80;90.90
54461;DHT22;69977;49.414;11.010;2023-05-29T10:03:11;21.90;89.50
54461;DHT22;69977;49.414;11.010;2023-05-29T10:05:41;21.90;88.80
54461;DHT22;69977;49.414;11.010;2023-05-29T10:08:11;21.80;86.80
54461;DHT22;69977;49.414;11.010;2023-05-29T10:10:43;21.90;85.40
54461;DHT22;69977;49.414;11.010;2023-05-29T10:13:12;22.00;84.30
54461;DHT22;69977;49.414;11.010;2023-05-29T10:15:41;22.00;83.70
54461;DHT22;69977;49.414;11.010;2023-05-29T10:18:21;22.30;83.00
54461;DHT22;69977;49.414;11.010;2023-05-29T10:20:50;22.70;85.20
54461;DHT22;69977;49.414;11.010;2023-05-29T10:23:20;22.70;83.20
54461;DHT22;69977;49.414;11.010;2023-05-29T10:25:51;22.80;83.50
54461;DHT22;69977;49.414;11.010;2023-05-29T10:28:19;22.80;81.20
54461;DHT22;69977;49.414;11.010;2023-05-29T10:30:55;23.00;78.50
54461;DHT22;69977;49.414;11.010;2023-05-29T10:36:46;23.90;76.60
54461;DHT22;69977;49.414;11.010;2023-05-29T10:39:15;24.50;77.40
54461;DHT22;69977;49.414;11.010;2023-05-29T10:41:41;25.30;76.00
54461;DHT22;69977;49.414;11.010;2023-05-29T10:47:04;28.00;69.20
54461;DHT22;69977;49.414;11.010;2023-05-29T10:49:30;29.10;62.10
54461;DHT22;69977;49.414;11.010;2023-05-29T10:51:57;29.70;59.50
54461;DHT22;69977;49.414;11.010;2023-05-29T10:54:25;30.30;60.40
54461;DHT22;69977;49.414;11.010;2023-05-29T10:56:56;30.30;55.90
54461;DHT22;69977;49.414;11.010;2023-05-29T10:59:23;30.70;55.10
54461;DHT22;69977;49.414;11.010;2023-05-29T11:01:53;30.80;54.80
54461;DHT22;69977;49.414;11.010;2023-05-29T11:06:51;31.60;49.20
54461;DHT22;69977;49.414;11.010;2023-05-29T11:12:23;32.20;51.60
54461;DHT22;69977;49.414;11.010;2023-05-29T11:15:05;32.20;49.90
54461;DHT22;69977;49.414;11.010;2023-05-29T11:20:05;32.70;48.40
54461;DHT22;69977;49.414;11.010;2023-05-29T11:23:01;32.60;46.90
54461;DHT22;69977;49.414;11.010;2023-05-29T11:25:28;32.70;46.10
54461;DHT22;69977;49.414;11.010;2023-05-29T11:27:54;32.90;47.00
54461;DHT22;69977;49.414;11.010;2023-05-29T11:30:21;32.50;47.20
54461;DHT22;69977;49.414;11.010;2023-05-29T11:32:47;32.00;47.90
54461;DHT22;69977;49.414;11.010;2023-05-29T11:35:14;31.50;47.30
54461;DHT22;69977;49.414;11.010;2023-05-29T11:37:43;31.10;48.10
54461;DHT22;69977;49.414;11.010;2023-05-29T11:40:12;30.60;49.20
54461;DHT22;69977;49.414;11.010;2023-05-29T11:42:42;30.40;49.60
54461;DHT22;69977;49.414;11.010;2023-05-29T11:47:58;29.60;51.90
54461;DHT22;69977;49.414;11.010;2023-05-29T11:50:25;29.50;50.60
54461;DHT22;69977;49.414;11.010;2023-05-29T11:52:52;29.10;49.60
54461;DHT22;69977;49.414;11.010;2023-05-29T11:55:19;29.10;51.50
54461;DHT22;69977;49.414;11.010;2023-05-29T11:57:47;28.90;49.70
54461;DHT22;69977;49.414;11.010;2023-05-29T12:00:16;29.10;51.30
54461;DHT22;69977;49.414;11.010;2023-05-29T12:02:43;29.20;51.30
54461;DHT22;69977;49.414;11.010;2023-05-29T12:05:09;29.50;51.00
54461;DHT22;69977;49.414;11.010;2023-05-29T12:07:36;29.60;50.80
54461;DHT22;69977;49.414;11.010;2023-05-29T12:10:16;29.60;49.90
54461;DHT22;69977;49.414;11.010;2023-05-29T12:12:42;29.70;49.80
54461;DHT22;69977;49.414;11.010;2023-05-29T12:15:09;29.70;49.10
54461;DHT22;69977;49.414;11.010;2023-05-29T12:17:35;30.10;49.10
54461;DHT22;69977;49.414;11.010;2023-05-29T12:20:03;30.20;48.90
54461;DHT22;69977;49.414;11.010;2023-05-29T12:22:37;30.40;48.80
54461;DHT22;69977;49.414;11.010;2023-05-29T12:25:05;30.40;49.00
54461;DHT22;69977;49.414;11.010;2023-05-29T12:27:32;30.90;47.90
54461;DHT22;69977;49.414;11.010;2023-05-29T12:30:04;31.30;48.10
54461;DHT22;69977;49.414;11.010;2023-05-29T12:32:40;32.10;47.00
54461;DHT22;69977;49.414;11.010;2023-05-29T12:35:27;32.40;46.50
54461;DHT22;69977;49.414;11.010;2023-05-29T12:38:01;32.30;45.80
54461;DHT22;69977;49.414;11.010;2023-05-29T12:40:28;32.80;44.90
54461;DHT22;69977;49.414;11.010;2023-05-29T12:42:56;33.10;46.20
54461;DHT22;69977;49.414;11.010;2023-05-29T12:45:24;33.70;45.70
54461;DHT22;69977;49.414;11.010;2023-05-29T12:48:04;34.20;43.90
54461;DHT22;69977;49.414;11.010;2023-05-29T12:50:35;34.50;43.40
54461;DHT22;69977;49.414;11.010;2023-05-29T12:53:04;34.50;44.60
54461;DHT22;69977;49.414;11.010;2023-05-29T12:55:34;34.60;43.60
54461;DHT22;69977;49.414;11.010;2023-05-29T12:58:03;35.10;43.30
54461;DHT22;69977;49.414;11.010;2023-05-29T13:00:29;35.10;42.80
54461;DHT22;69977;49.414;11.010;2023-05-29T13:02:55;35.20;43.40
54461;DHT22;69977;49.414;11.010;2023-05-29T13:05:21;34.90;44.20
54461;DHT22;69977;49.414;11.010;2023-05-29T13:07:52;34.90;42.90
54461;DHT22;69977;49.414;11.010;2023-05-29T13:10:18;35.10;42.70
54461;DHT22;69977;49.414;11.010;2023-05-29T13:12:45;35.20;43.30
54461;DHT22;69977;49.414;11.010;2023-05-29T13:15:12;35.20;43.00
54461;DHT22;69977;49.414;11.010;2023-05-29T13:17:38;35.30;41.90
54461;DHT22;69977;49.414;11.010;2023-05-29T13:20:11;35.10;43.80
54461;DHT22;69977;49.414;11.010;2023-05-29T13:22:41;35.30;43.00
54461;DHT22;69977;49.414;11.010;2023-05-29T13:25:09;35.70;41.90
54461;DHT22;69977;49.414;11.010;2023-05-29T13:27:40;35.50;42.00
54461;DHT22;69977;49.414;11.010;2023-05-29T13:30:08;35.20;43.50
54461;DHT22;69977;49.414;11.010;2023-05-29T13:32:34;34.70;41.20
54461;DHT22;69977;49.414;11.010;2023-05-29T13:35:00;34.80;41.10
54461;DHT22;69977;49.414;11.010;2023-05-29T13:37:26;34.30;40.50
54461;DHT22;69977;49.414;11.010;2023-05-29T13:39:53;34.70;42.20
54461;DHT22;69977;49.414;11.010;2023-05-29T13:42:20;34.60;42.50
54461;DHT22;69977;49.414;11.010;2023-05-29T13:44:46;34.20;43.50
54461;DHT22;69977;49.414;11.010;2023-05-29T13:47:13;34.50;43.30
54461;DHT22;69977;49.414;11.010;2023-05-29T13:49:39;34.70;42.70
54461;DHT22;69977;49.414;11.010;2023-05-29T13:52:05;34.40;44.00
54461;DHT22;69977;49.414;11.010;2023-05-29T13:54:31;34.10;43.50
54461;DHT22;69977;49.414;11.010;2023-05-29T13:57:04;33.50;44.40
54461;DHT22;69977;49.414;11.010;2023-05-29T13:59:35;33.30;44.00
54461;DHT22;69977;49.414;11.010;2023-05-29T14:02:01;33.10;45.60
54461;DHT22;69977;49.414;11.010;2023-05-29T14:04:31;33.20;44.30
54461;DHT22;69977;49.414;11.010;2023-05-29T14:06:57;33.50;43.70
54461;DHT22;69977;49.414;11.010;2023-05-29T14:09:23;33.60;44.50
54461;DHT22;69977;49.414;11.010;2023-05-29T14:11:54;33.60;44.00
54461;DHT22;69977;49.414;11.010;2023-05-29T14:14:20;33.60;44.00
54461;DHT22;69977;49.414;11.010;2023-05-29T14:16:46;33.70;44.30
54461;DHT22;69977;49.414;11.010;2023-05-29T14:19:12;33.70;42.50
54461;DHT22;69977;49.414;11.010;2023-05-29T14:21:38;33.40;42.40
54461;DHT22;69977;49.414;11.010;2023-05-29T14:24:03;33.60;43.20
54461;DHT22;69977;49.414;11.010;2023-05-29T14:26:29;33.40;44.80
54461;DHT22;69977;49.414;11.010;2023-05-29T14:28:55;33.40;45.40
54461;DHT22;69977;49.414;11.010;2023-05-29T14:31:21;33.20;43.10
54461;DHT22;69977;49.414;11.010;2023-05-29T14:33:47;32.90;44.80
54461;DHT22;69977;49.414;11.010;2023-05-29T14:36:13;32.90;43.60
54461;DHT22;69977;49.414;11.010;2023-05-29T14:38:39;32.50;44.10
54461;DHT22;69977;49.414;11.010;2023-05-29T14:41:04;32.30;44.50
54461;DHT22;69977;49.414;11.010;2023-05-29T14:43:32;32.20;45.20
54461;DHT22;69977;49.414;11.010;2023-05-29T14:45:58;32.10;46.00
54461;DHT22;69977;49.414;11.010;2023-05-29T14:48:23;31.90;46.40
54461;DHT22;69977;49.414;11.010;2023-05-29T14:50:49;32.20;45.90
54461;DHT22;69977;49.414;11.010;2023-05-29T14:53:15;32.10;44.50
54461;DHT22;69977;49.414;11.010;2023-05-29T14:55:40;31.60;45.00
54461;DHT22;69977;49.414;11.010;2023-05-29T14:58:06;31.80;45.40
54461;DHT22;69977;49.414;11.010;2023-05-29T15:00:32;31.70;45.90
54461;DHT22;69977;49.414;11.010;2023-05-29T15:02:58;31.40;47.30
54461;DHT22;69977;49.414;11.010;2023-05-29T15:05:28;31.30;45.70
54461;DHT22;69977;49.414;11.010;2023-05-29T15:07:55;31.30;46.10
54461;DHT22;69977;49.414;11.010;2023-05-29T15:10:25;31.30;45.90
54461;DHT22;69977;49.414;11.010;2023-05-29T15:12:52;31.40;45.60
54461;DHT22;69977;49.414;11.010;2023-05-29T15:15:28;31.10;45.50
54461;DHT22;69977;49.414;11.010;2023-05-29T15:17:54;30.70;46.30
54461;DHT22;69977;49.414;11.010;2023-05-29T15:20:24;30.60;46.20
54461;DHT22;69977;49.414;11.010;2023-05-29T15:22:50;30.80;46.40
54461;DHT22;69977;49.414;11.010;2023-05-29T15:25:20;30.90;46.40
54461;DHT22;69977;49.414;11.010;2023-05-29T15:27:46;30.70;46.70
54461;DHT22;69977;49.414;11.010;2023-05-29T15:30:15;30.80;46.10
54461;DHT22;69977;49.414;11.010;2023-05-29T15:32:42;30.40;47.70
54461;DHT22;69977;49.414;11.010;2023-05-29T15:35:12;30.50;49.50
54461;DHT22;69977;49.414;11.010;2023-05-29T15:37:38;30.60;48.50
54461;DHT22;69977;49.414;11.010;2023-05-29T15:40:05;30.50;47.70
54461;DHT22;69977;49.414;11.010;2023-05-29T15:42:32;30.40;46.70
54461;DHT22;69977;49.414;11.010;2023-05-29T15:44:58;30.50;47.30
54461;DHT22;69977;49.414;11.010;2023-05-29T15:47:24;30.60;47.20
54461;DHT22;69977;49.414;11.010;2023-05-29T15:49:50;30.70;46.90
54461;DHT22;69977;49.414;11.010;2023-05-29T15:52:16;30.70;47.50